createdAt,value
2022-11-17T00:02:00.856Z,76007.59
2022-11-17T00:04:29.999Z,76018.19
2022-11-17T00:06:58.153Z,76026.66
2022-11-17T00:09:26.182Z,76028.75
2022-11-17T00:12:22.715Z,76043.59
2022-11-17T00:14:50.746Z,76039.34
2022-11-17T00:17:18.710Z,76020.31
2022-11-17T00:20:05.077Z,76022.41
2022-11-17T00:22:33.125Z,76022.41
2022-11-17T00:25:00.937Z,76018.19
2022-11-17T00:27:28.616Z,76030.88
2022-11-17T00:29:56.966Z,76035.13
2022-11-17T00:32:42.596Z,76039.34
2022-11-17T00:35:11.790Z,76028.75
2022-11-17T00:38:01.301Z,76026.66
2022-11-17T00:40:29.454Z,76028.75
2022-11-17T00:42:57.157Z,76037.22
2022-11-17T00:45:24.837Z,76043.59
2022-11-17T00:47:52.714Z,76052.03
2022-11-17T00:50:21.838Z,76041.47
2022-11-17T00:52:49.819Z,76033.00
2022-11-17T00:55:17.993Z,76035.13
2022-11-17T00:57:45.723Z,76039.34
2022-11-17T01:00:14.479Z,76041.47
2022-11-17T01:02:42.238Z,76041.47
2022-11-17T01:05:10.355Z,76033.00
2022-11-17T01:07:39.520Z,76045.69
2022-11-17T01:10:08.359Z,76041.47
2022-11-17T01:12:36.077Z,76047.81
2022-11-17T01:15:03.863Z,76033.00
2022-11-17T01:17:31.571Z,76035.13
2022-11-17T01:19:59.439Z,76043.59
2022-11-17T01:22:27.207Z,76037.22
2022-11-17T01:24:56.643Z,76030.88
2022-11-17T01:27:24.518Z,76026.66
2022-11-17T01:29:52.231Z,76033.00
2022-11-17T01:32:19.891Z,76037.22
2022-11-17T01:34:48.608Z,76030.88
2022-11-17T01:37:22.454Z,76037.22
2022-11-17T01:39:50.991Z,76064.75
2022-11-17T01:42:22.635Z,76054.16
2022-11-17T01:44:56.734Z,76058.41
2022-11-17T01:47:28.497Z,76054.16
2022-11-17T01:49:58.858Z,76062.63
2022-11-17T01:52:26.977Z,76071.09
2022-11-17T01:54:55.361Z,76071.09
2022-11-17T01:57:26.803Z,76073.22
2022-11-17T01:59:57.446Z,76064.75
2022-11-17T02:02:25.193Z,76071.09
2022-11-17T02:04:57.635Z,76075.31
2022-11-17T02:07:27.110Z,76077.44
2022-11-17T02:09:55.440Z,76075.31
2022-11-17T02:12:27.264Z,76075.31
2022-11-17T02:14:55.695Z,76077.44
2022-11-17T02:17:25.167Z,76083.78
2022-11-17T02:19:58.122Z,76077.44
2022-11-17T02:22:43.894Z,76083.78
2022-11-17T02:25:27.215Z,76090.16
2022-11-17T02:28:05.164Z,76096.50
2022-11-17T02:30:37.130Z,76113.44
2022-11-17T02:33:08.421Z,76126.13
2022-11-17T02:35:42.015Z,76115.53
2022-11-17T02:38:18.653Z,76111.31
2022-11-17T02:40:50.650Z,76113.44
2022-11-17T02:43:40.221Z,76113.44
2022-11-17T02:46:09.915Z,76115.53
2022-11-17T02:48:40.141Z,76117.66
2022-11-17T02:51:13.782Z,76107.06
2022-11-17T02:53:41.799Z,76121.91
2022-11-17T02:56:09.733Z,76132.47
2022-11-17T02:58:39.055Z,76130.34
2022-11-17T03:01:20.852Z,76130.34
2022-11-17T03:04:04.195Z,76128.25
2022-11-17T03:06:50.324Z,76126.13
2022-11-17T03:09:21.642Z,76126.13
2022-11-17T03:11:51.453Z,76132.47
2022-11-17T03:14:27.442Z,76147.28
2022-11-17T03:16:58.519Z,76138.81
2022-11-17T03:19:30.435Z,76140.94
2022-11-17T03:22:02.985Z,76147.28
2022-11-17T03:24:33.612Z,76149.41
2022-11-17T03:27:04.274Z,76151.53
2022-11-17T03:29:34.108Z,76166.34
2022-11-17T03:32:04.707Z,76162.09
2022-11-17T03:34:37.482Z,76160.00
2022-11-17T03:37:07.607Z,76164.22
2022-11-17T03:39:37.944Z,76168.47
2022-11-17T03:42:09.511Z,76164.22
2022-11-17T03:44:41.570Z,76164.22
2022-11-17T03:47:10.908Z,76172.69
2022-11-17T03:49:41.387Z,76176.94
2022-11-17T03:52:09.324Z,76174.81
2022-11-17T03:54:37.672Z,76162.09
2022-11-17T03:57:08.596Z,76164.22
2022-11-17T03:59:43.439Z,76174.81
2022-11-17T04:02:15.761Z,76172.69
2022-11-17T04:05:00.816Z,76174.81
2022-11-17T04:07:28.512Z,76179.03
2022-11-17T04:09:56.349Z,76179.03
2022-11-17T04:12:41.899Z,76193.84
2022-11-17T04:15:30.011Z,76179.03
2022-11-17T04:17:57.829Z,76200.22
2022-11-17T04:20:25.466Z,76193.84
2022-11-17T04:26:06.827Z,76198.09
2022-11-17T04:28:38.693Z,76210.78
2022-11-17T04:31:07.973Z,76215.03
2022-11-17T04:33:36.225Z,76202.31
2022-11-17T04:36:04.750Z,76187.50
2022-11-17T04:38:32.504Z,76187.50
2022-11-17T04:41:32.683Z,76179.03
2022-11-17T04:44:00.879Z,76176.94
2022-11-17T04:46:30.835Z,76210.78
2022-11-17T04:48:59.355Z,76198.09
2022-11-17T04:51:28.777Z,76202.31
2022-11-17T04:53:57.260Z,76208.66
2022-11-17T04:56:26.796Z,76217.13
2022-11-17T04:58:55.217Z,76212.91
2022-11-17T05:01:23.948Z,76238.31
2022-11-17T05:03:53.169Z,76229.84
2022-11-17T05:06:22.407Z,76234.06
2022-11-17T05:08:50.502Z,76246.78
2022-11-17T05:11:36.404Z,76255.25
2022-11-17T05:14:05.877Z,76261.59
2022-11-17T05:16:51.245Z,76261.59
2022-11-17T05:19:20.454Z,76248.88
2022-11-17T05:21:48.266Z,76253.13
2022-11-17T05:24:15.406Z,76253.13
2022-11-17T05:26:44.586Z,76263.72
2022-11-17T05:29:15.275Z,76278.53
2022-11-17T05:31:43.180Z,76257.34
2022-11-17T05:34:12.739Z,76242.53
2022-11-17T05:36:41.376Z,76240.41
2022-11-17T05:39:09.552Z,76257.34
2022-11-17T05:41:37.952Z,76253.13
2022-11-17T05:44:06.118Z,76248.88
2022-11-17T05:46:35.248Z,76244.66
2022-11-17T05:49:03.329Z,76234.06
2022-11-17T05:51:32.278Z,76246.78
2022-11-17T05:53:59.924Z,76236.19
2022-11-17T05:56:32.990Z,76253.13
2022-11-17T05:59:05.390Z,76244.66
2022-11-17T06:01:33.040Z,76255.25
2022-11-17T06:04:04.646Z,76255.25
2022-11-17T06:06:32.863Z,76276.41
2022-11-17T06:09:00.880Z,76261.59
2022-11-17T06:11:28.829Z,76265.81
2022-11-17T06:13:57.103Z,76270.06
2022-11-17T06:16:26.920Z,76270.06
2022-11-17T06:19:03.794Z,76276.41
2022-11-17T06:21:49.329Z,76278.53
2022-11-17T06:24:19.633Z,76278.53
2022-11-17T06:26:48.355Z,76287.00
2022-11-17T06:29:16.410Z,76282.75
2022-11-17T06:31:46.279Z,76299.69
2022-11-17T06:34:15.645Z,76303.91
2022-11-17T06:36:43.619Z,76306.03
2022-11-17T06:39:11.314Z,76299.69
2022-11-17T06:41:39.926Z,76303.91
2022-11-17T06:44:07.653Z,76316.63
2022-11-17T06:46:39.130Z,76310.28
2022-11-17T06:49:10.949Z,76301.81
2022-11-17T06:51:44.928Z,76297.56
2022-11-17T06:54:14.563Z,76318.75
2022-11-17T06:56:42.544Z,76310.28
2022-11-17T06:59:10.356Z,76314.50
2022-11-17T07:01:38.261Z,76303.91
2022-11-17T07:04:06.908Z,76316.63
2022-11-17T07:06:37.402Z,76308.16
2022-11-17T07:09:06.762Z,76308.16
2022-11-17T07:11:35.806Z,76316.63
2022-11-17T07:14:03.924Z,76308.16
2022-11-17T07:16:32.607Z,76303.91
2022-11-17T07:19:03.675Z,76287.00
2022-11-17T07:21:31.401Z,76282.75
2022-11-17T07:23:59.238Z,76287.00
2022-11-17T07:26:28.413Z,76287.00
2022-11-17T07:28:56.442Z,76282.75
2022-11-17T07:31:24.309Z,76293.34
2022-11-17T07:33:52.052Z,76301.81
2022-11-17T07:36:21.885Z,76299.69
2022-11-17T07:38:50.039Z,76293.34
2022-11-17T07:41:20.221Z,76299.69
2022-11-17T07:43:51.683Z,76310.28
2022-11-17T07:46:19.402Z,76312.38
2022-11-17T07:48:47.118Z,76308.16
2022-11-17T07:51:16.005Z,76303.91
2022-11-17T07:53:43.657Z,76301.81
2022-11-17T07:56:12.427Z,76303.91
2022-11-17T07:58:40.412Z,76303.91
2022-11-17T08:01:10.779Z,76308.16
2022-11-17T08:03:38.813Z,76301.81
2022-11-17T08:06:07.615Z,76297.56
2022-11-17T08:08:36.060Z,76299.69
2022-11-17T08:11:05.078Z,76297.56
2022-11-17T08:13:32.911Z,76293.34
2022-11-17T08:16:00.843Z,76295.47
2022-11-17T08:18:30.778Z,76284.88
2022-11-17T08:21:09.329Z,76299.69
2022-11-17T08:23:37.595Z,76308.16
2022-11-17T08:26:06.469Z,76316.63
2022-11-17T08:28:35.140Z,76308.16
2022-11-17T08:31:03.973Z,76318.75
2022-11-17T08:33:33.354Z,76312.38
2022-11-17T08:36:02.398Z,76316.63
2022-11-17T08:38:31.571Z,76303.91
2022-11-17T08:41:00.335Z,76312.38
2022-11-17T08:43:28.376Z,76316.63
2022-11-17T08:45:56.623Z,76303.91
2022-11-17T08:48:24.719Z,76303.91
2022-11-17T08:50:53.775Z,76316.63
2022-11-17T08:53:23.516Z,76327.19
2022-11-17T08:55:51.846Z,76325.09
2022-11-17T08:58:19.777Z,76327.19
2022-11-17T09:00:47.880Z,76325.09
2022-11-17T09:03:15.928Z,76331.44
2022-11-17T09:05:46.948Z,76342.03
2022-11-17T09:08:56.251Z,76335.66
2022-11-17T09:11:05.600Z,76356.84
2022-11-17T09:13:33.704Z,76352.59
2022-11-17T09:16:03.574Z,76352.59
2022-11-17T09:18:31.718Z,76361.06
2022-11-17T09:21:03.142Z,76358.94
2022-11-17T09:23:33.453Z,76354.72
2022-11-17T09:26:06.042Z,76356.84
2022-11-17T09:28:33.958Z,76358.94
2022-11-17T09:31:07.457Z,76354.72
2022-11-17T09:33:35.400Z,76365.31
2022-11-17T09:36:02.997Z,76363.19
2022-11-17T09:38:37.088Z,76356.84
2022-11-17T09:41:18.206Z,76346.25
2022-11-17T09:43:49.673Z,76329.31
2022-11-17T09:46:21.709Z,76348.38
2022-11-17T09:48:54.337Z,76348.38
2022-11-17T09:51:23.204Z,76346.25
2022-11-17T09:53:56.718Z,76331.44
2022-11-17T09:56:27.765Z,76325.09
2022-11-17T09:58:58.747Z,76333.56
2022-11-17T10:01:28.990Z,76337.78
2022-11-17T10:03:59.993Z,76339.91
2022-11-17T10:06:29.497Z,76339.91
2022-11-17T10:09:01.330Z,76337.78
2022-11-17T10:11:34.899Z,76337.78
2022-11-17T10:14:04.753Z,76333.56
2022-11-17T10:16:32.483Z,76342.03
2022-11-17T10:19:00.131Z,76339.91
2022-11-17T10:21:30.666Z,76335.66
2022-11-17T10:24:00.309Z,76352.59
2022-11-17T10:26:28.359Z,76356.84
2022-11-17T10:29:09.558Z,76358.94
2022-11-17T10:31:43.967Z,76358.94
2022-11-17T10:34:12.986Z,76367.41
2022-11-17T10:36:46.718Z,76358.94
2022-11-17T10:39:40.520Z,76346.25
2022-11-17T10:42:55.064Z,76363.19
2022-11-17T10:45:23.707Z,76354.72
2022-11-17T10:47:51.710Z,76348.38
2022-11-17T10:50:24.146Z,76337.78
2022-11-17T10:52:52.550Z,76337.78
2022-11-17T10:55:26.593Z,76346.25
2022-11-17T10:57:57.861Z,76348.38
2022-11-17T11:00:33.844Z,76342.03
2022-11-17T11:03:17.434Z,76335.66
2022-11-17T11:06:00.432Z,76339.91
2022-11-17T11:08:33.169Z,76325.09
2022-11-17T11:11:04.310Z,76312.38
2022-11-17T11:13:37.439Z,76301.81
2022-11-17T11:16:06.479Z,76303.91
2022-11-17T11:18:34.140Z,76299.69
2022-11-17T11:21:09.748Z,76291.22
2022-11-17T11:23:45.745Z,76303.91
2022-11-17T11:26:26.336Z,76299.69
2022-11-17T11:29:04.875Z,76301.81
2022-11-17T11:31:43.053Z,76308.16
2022-11-17T11:34:20.632Z,76303.91
2022-11-17T11:36:52.528Z,76312.38
2022-11-17T11:39:29.384Z,76320.84
2022-11-17T11:42:21.041Z,76327.19
2022-11-17T11:45:13.643Z,76335.66
2022-11-17T11:47:57.973Z,76325.09
2022-11-17T11:50:30.118Z,76318.75
2022-11-17T11:53:04.785Z,76312.38
2022-11-17T11:55:35.177Z,76318.75
2022-11-17T11:58:11.988Z,76312.38
2022-11-17T12:00:42.627Z,76335.66
2022-11-17T12:03:18.020Z,76333.56
2022-11-17T12:05:58.145Z,76325.09
2022-11-17T12:08:33.903Z,76325.09
2022-11-17T12:11:24.671Z,76320.84
2022-11-17T12:13:54.650Z,76320.84
2022-11-17T12:16:32.199Z,76327.19
2022-11-17T12:19:03.429Z,76316.63
2022-11-17T12:21:39.262Z,76316.63
2022-11-17T12:24:16.956Z,76327.19
2022-11-17T12:26:45.034Z,76337.78
2022-11-17T12:29:27.269Z,76346.25
2022-11-17T12:31:55.804Z,76346.25
2022-11-17T12:34:26.437Z,76337.78
2022-11-17T12:37:23.584Z,76339.91
2022-11-17T12:40:02.313Z,76333.56
2022-11-17T12:42:32.993Z,76333.56
2022-11-17T12:45:11.911Z,76337.78
2022-11-17T12:47:40.999Z,76329.31
2022-11-17T12:50:42.404Z,76335.66
2022-11-17T12:53:30.052Z,76350.50
2022-11-17T12:56:15.887Z,76358.94
2022-11-17T12:58:53.568Z,76350.50
2022-11-17T13:01:29.239Z,76348.38
2022-11-17T13:04:01.000Z,76342.03
2022-11-17T13:06:35.380Z,76346.25
2022-11-17T13:09:07.455Z,76339.91
2022-11-17T13:11:35.678Z,76344.13
2022-11-17T13:14:11.369Z,76348.38
2022-11-17T13:16:49.694Z,76354.72
2022-11-17T13:19:57.257Z,76369.53
2022-11-17T13:22:26.821Z,76375.88
2022-11-17T13:25:25.381Z,76358.94
2022-11-17T13:28:04.671Z,76371.66
2022-11-17T13:30:34.045Z,76373.78
2022-11-17T13:33:04.044Z,76369.53
2022-11-17T13:35:35.388Z,76363.19
2022-11-17T13:38:05.387Z,76371.66
2022-11-17T13:40:34.988Z,76392.81
2022-11-17T13:43:04.324Z,76388.59
2022-11-17T13:45:32.059Z,76384.34
2022-11-17T13:48:00.249Z,76382.25
2022-11-17T13:50:37.282Z,76392.81
2022-11-17T13:53:22.881Z,76386.47
2022-11-17T13:55:51.196Z,76384.34
2022-11-17T13:58:30.662Z,76382.25
2022-11-17T14:00:59.775Z,76386.47
2022-11-17T14:03:36.253Z,76375.88
2022-11-17T14:06:08.061Z,76375.88
2022-11-17T14:08:36.972Z,76388.59
2022-11-17T14:11:21.627Z,76409.75
2022-11-17T14:13:51.023Z,76424.56
2022-11-17T14:16:25.229Z,76418.22
2022-11-17T14:19:00.711Z,76426.69
2022-11-17T14:21:30.328Z,76433.03
2022-11-17T14:24:04.187Z,76443.63
2022-11-17T14:26:32.700Z,76443.63
2022-11-17T14:29:02.497Z,76435.16
2022-11-17T14:31:31.680Z,76452.09
2022-11-17T14:34:00.049Z,76443.63
2022-11-17T14:36:29.608Z,76452.09
2022-11-17T14:38:57.311Z,76452.09
2022-11-17T14:41:25.229Z,76447.84
2022-11-17T14:43:52.849Z,76439.38
2022-11-17T14:46:22.716Z,76447.84
2022-11-17T14:48:50.486Z,76447.84
2022-11-17T14:51:18.518Z,76437.28
2022-11-17T14:53:48.225Z,76445.75
2022-11-17T14:56:17.886Z,76433.03
2022-11-17T14:58:45.697Z,76439.38
2022-11-17T15:01:17.113Z,76435.16
2022-11-17T15:03:44.921Z,76441.50
2022-11-17T15:06:19.375Z,76441.50
2022-11-17T15:08:49.315Z,76422.47
2022-11-17T15:11:18.739Z,76426.69
2022-11-17T15:13:46.414Z,76424.56
2022-11-17T15:16:14.288Z,76435.16
2022-11-17T15:18:42.063Z,76426.69
2022-11-17T15:21:11.013Z,76430.91
2022-11-17T15:23:40.052Z,76424.56
2022-11-17T15:26:11.518Z,76416.09
2022-11-17T15:28:39.149Z,76416.09
2022-11-17T15:31:12.189Z,76416.09
2022-11-17T15:33:41.386Z,76420.34
2022-11-17T15:36:10.680Z,76409.75
2022-11-17T15:38:38.704Z,76409.75
2022-11-17T15:41:06.968Z,76409.75
2022-11-17T15:43:37.867Z,76405.53
2022-11-17T15:46:07.012Z,76392.81
2022-11-17T15:48:35.297Z,76394.94
2022-11-17T15:51:04.192Z,76397.06
2022-11-17T15:53:33.138Z,76401.28
2022-11-17T15:56:04.729Z,76392.81
2022-11-17T15:58:33.458Z,76388.59
2022-11-17T16:01:14.221Z,76397.06
2022-11-17T16:03:43.253Z,76409.75
2022-11-17T16:06:11.670Z,76403.41
2022-11-17T16:08:40.181Z,76399.16
2022-11-17T16:11:08.289Z,76392.81
2022-11-17T16:13:35.924Z,76392.81
2022-11-17T16:16:03.629Z,76390.69
2022-11-17T16:18:33.983Z,76382.25
2022-11-17T16:21:05.582Z,76382.25
2022-11-17T16:23:38.934Z,76373.78
2022-11-17T16:26:06.684Z,76384.34
2022-11-17T16:28:34.400Z,76388.59
2022-11-17T16:31:02.378Z,76388.59
2022-11-17T16:33:30.006Z,76405.53
2022-11-17T16:36:06.788Z,76397.06
2022-11-17T16:38:35.169Z,76392.81
2022-11-17T16:41:03.170Z,76397.06
2022-11-17T16:43:31.142Z,76418.22
2022-11-17T16:45:59.007Z,76418.22
2022-11-17T16:48:26.627Z,76416.09
2022-11-17T16:50:54.587Z,76420.34
2022-11-17T16:53:24.174Z,76405.53
2022-11-17T16:55:52.002Z,76416.09
2022-11-17T16:58:22.603Z,76411.88
2022-11-17T17:00:51.386Z,76414.00
2022-11-17T17:03:19.050Z,76414.00
2022-11-17T17:05:48.902Z,76414.00
2022-11-17T17:08:16.741Z,76409.75
2022-11-17T17:10:46.945Z,76418.22
2022-11-17T17:13:14.901Z,76409.75
2022-11-17T17:15:42.509Z,76409.75
2022-11-17T17:18:10.155Z,76403.41
2022-11-17T17:20:39.801Z,76390.69
2022-11-17T17:23:07.838Z,76397.06
2022-11-17T17:25:35.555Z,76409.75
2022-11-17T17:28:05.080Z,76407.63
2022-11-17T17:30:36.604Z,76409.75
2022-11-17T17:33:10.859Z,76409.75
2022-11-17T17:35:56.251Z,76416.09
2022-11-17T17:38:26.729Z,76414.00
2022-11-17T17:40:56.436Z,76399.16
2022-11-17T17:43:42.529Z,76405.53
2022-11-17T17:46:15.732Z,76403.41
2022-11-17T17:48:45.534Z,76397.06
2022-11-17T17:51:15.874Z,76405.53
2022-11-17T17:53:43.757Z,76414.00
2022-11-17T17:56:12.947Z,76416.09
2022-11-17T17:58:42.585Z,76411.88
2022-11-17T18:01:11.790Z,76401.28
2022-11-17T18:03:40.254Z,76405.53
2022-11-17T18:06:08.702Z,76407.63
2022-11-17T18:08:36.870Z,76401.28
2022-11-17T18:11:07.663Z,76401.28
2022-11-17T18:13:38.091Z,76403.41
2022-11-17T18:16:09.879Z,76409.75
2022-11-17T18:18:38.186Z,76401.28
2022-11-17T18:21:07.838Z,76397.06
2022-11-17T18:23:36.738Z,76392.81
2022-11-17T18:26:11.803Z,76394.94
2022-11-17T18:28:40.355Z,76392.81
2022-11-17T18:31:09.749Z,76397.06
2022-11-17T18:33:39.039Z,76403.41
2022-11-17T18:36:09.464Z,76388.59
2022-11-17T18:38:38.570Z,76388.59
2022-11-17T18:41:08.212Z,76384.34
2022-11-17T18:43:36.428Z,76375.88
2022-11-17T18:46:19.889Z,76378.00
2022-11-17T18:48:51.820Z,76388.59
2022-11-17T18:51:26.290Z,76386.47
2022-11-17T18:53:55.481Z,76384.34
2022-11-17T18:56:24.934Z,76384.34
2022-11-17T18:58:53.138Z,76380.13
2022-11-17T19:01:22.605Z,76390.69
2022-11-17T19:03:53.417Z,76397.06
2022-11-17T19:06:25.521Z,76392.81
2022-11-17T19:08:54.109Z,76388.59
2022-11-17T19:11:23.660Z,76394.94
2022-11-17T19:13:51.632Z,76384.34
2022-11-17T19:16:21.098Z,76380.13
2022-11-17T19:18:53.783Z,76375.88
2022-11-17T19:21:23.458Z,76375.88
2022-11-17T19:23:52.348Z,76378.00
2022-11-17T19:26:22.251Z,76390.69
2022-11-17T19:28:50.049Z,76384.34
2022-11-17T19:31:19.050Z,76373.78
2022-11-17T19:33:47.696Z,76371.66
2022-11-17T19:36:17.760Z,76371.66
2022-11-17T19:38:50.583Z,76375.88
2022-11-17T19:41:23.239Z,76371.66
2022-11-17T19:43:53.706Z,76367.41
2022-11-17T19:46:22.489Z,76358.94
2022-11-17T19:48:50.229Z,76367.41
2022-11-17T19:51:21.478Z,76373.78
2022-11-17T19:53:50.172Z,76384.34
2022-11-17T19:56:18.072Z,76380.13
2022-11-17T19:58:46.512Z,76378.00
2022-11-17T20:01:15.561Z,76380.13
2022-11-17T20:03:43.954Z,76375.88
2022-11-17T20:06:20.159Z,76373.78
2022-11-17T20:09:06.701Z,76361.06
2022-11-17T20:11:35.529Z,76367.41
2022-11-17T20:14:08.778Z,76352.59
2022-11-17T20:16:38.345Z,76358.94
2022-11-17T20:19:07.182Z,76367.41
2022-11-17T20:21:50.522Z,76369.53
2022-11-17T20:24:22.007Z,76352.59
2022-11-17T20:26:51.602Z,76354.72
2022-11-17T20:29:30.267Z,76358.94
2022-11-17T20:32:01.633Z,76356.84
2022-11-17T20:34:34.288Z,76354.72
2022-11-17T20:37:02.129Z,76352.59
2022-11-17T20:39:35.420Z,76358.94
2022-11-17T20:42:03.595Z,76350.50
2022-11-17T20:44:35.900Z,76346.25
2022-11-17T20:47:04.108Z,76350.50
2022-11-17T20:49:41.400Z,76350.50
2022-11-17T20:52:13.214Z,76344.13
2022-11-17T20:54:42.573Z,76342.03
2022-11-17T20:57:10.414Z,76348.38
2022-11-17T20:59:38.635Z,76346.25
2022-11-17T21:02:06.315Z,76344.13
2022-11-17T21:04:33.895Z,76335.66
2022-11-17T21:07:01.678Z,76337.78
2022-11-17T21:09:29.351Z,76342.03
2022-11-17T21:11:58.326Z,76348.38
2022-11-17T21:14:27.225Z,76346.25
2022-11-17T21:16:55.952Z,76337.78
2022-11-17T21:19:24.059Z,76354.72
2022-11-17T21:21:53.276Z,76352.59
2022-11-17T21:24:21.980Z,76350.50
2022-11-17T21:26:49.902Z,76354.72
2022-11-17T21:29:20.679Z,76350.50
2022-11-17T21:31:50.449Z,76342.03
2022-11-17T21:34:22.246Z,76350.50
2022-11-17T21:36:50.204Z,76350.50
2022-11-17T21:39:22.619Z,76346.25
2022-11-17T21:41:50.128Z,76342.03
2022-11-17T21:44:21.135Z,76335.66
2022-11-17T21:46:49.165Z,76331.44
2022-11-17T21:49:17.218Z,76344.13
2022-11-17T21:51:45.665Z,76337.78
2022-11-17T21:54:14.816Z,76346.25
2022-11-17T21:56:42.742Z,76342.03
2022-11-17T21:59:12.293Z,76333.56
2022-11-17T22:01:41.503Z,76329.31
2022-11-17T22:04:09.692Z,76329.31
2022-11-17T22:06:38.987Z,76325.09
2022-11-17T22:09:06.623Z,76312.38
2022-11-17T22:11:37.814Z,76306.03
2022-11-17T22:14:08.021Z,76306.03
2022-11-17T22:16:36.204Z,76312.38
2022-11-17T22:19:05.967Z,76310.28
2022-11-17T22:21:33.665Z,76312.38
2022-11-17T22:24:01.487Z,76314.50
2022-11-17T22:26:29.179Z,76310.28
2022-11-17T22:28:57.188Z,76308.16
2022-11-17T22:31:25.015Z,76303.91
2022-11-17T22:33:53.033Z,76306.03
2022-11-17T22:36:22.190Z,76297.56
2022-11-17T22:38:50.716Z,76291.22
2022-11-17T22:41:18.662Z,76295.47
2022-11-17T22:43:49.732Z,76295.47
2022-11-17T22:46:18.457Z,76314.50
2022-11-17T22:48:46.256Z,76322.97
2022-11-17T22:51:34.369Z,76322.97
2022-11-17T22:54:03.480Z,76310.28
2022-11-17T22:56:31.344Z,76308.16
2022-11-17T22:58:59.973Z,76299.69
2022-11-17T23:01:27.918Z,76306.03
2022-11-17T23:03:55.722Z,76301.81
2022-11-17T23:06:24.242Z,76295.47
2022-11-17T23:08:51.898Z,76299.69
2022-11-17T23:11:37.933Z,76291.22
2022-11-17T23:14:06.819Z,76303.91
2022-11-17T23:16:34.543Z,76301.81
2022-11-17T23:19:02.167Z,76303.91
2022-11-17T23:21:30.639Z,76299.69
2022-11-17T23:23:58.329Z,76306.03
2022-11-17T23:26:27.425Z,76295.47
2022-11-17T23:28:55.262Z,76274.28
2022-11-17T23:31:23.019Z,76284.88
2022-11-17T23:33:50.707Z,76282.75
2022-11-17T23:36:19.994Z,76295.47
2022-11-17T23:38:48.309Z,76295.47
2022-11-17T23:41:17.481Z,76284.88
2022-11-17T23:43:46.709Z,76282.75
2022-11-17T23:46:15.827Z,76291.22
2022-11-17T23:48:44.581Z,76287.00
2022-11-17T23:51:13.987Z,76287.00
2022-11-17T23:53:41.891Z,76289.09
2022-11-17T23:56:10.983Z,76295.47
2022-11-17T23:58:39.673Z,76291.22
